LFLS 221130Z AUTO VRB02KT CAVOK 12/04 Q1031 NOSIG

ElémentsDécodage
LFLS Station météo située sur l'aérodrome de GRENOBLE Saint-Geoirs
221130Z émis le 22 du mois à 11h30 UTC
AUTO Bulletin édité par un automate
VRB02KT vent de direction variable, 02 noeuds
CAVOK Ceiling And Visibility OK
- Visibilité de 10 Km ou plus
- Pas de nuage au-dessous de 1500m ou au-dessous de l'altitude minimale du secteur la plus élevée (si>1500m) et absence de CB
- pas de temps présent significatif
12/04 température 12°C, point de rosée 04°C
 soit une humidité relative de 58%
Q1031 la pression au niveau de la mer (QNH) est de 1031 hPa
NOSIG Pas de changement significatif prévu au cours des deux heures suivant l'heure de l'observation